Time;durP1;ratioP1;P1;durP2;ratioP2;P2;SDS_P1;SDS_P2;PMS_P1;PMS_P2;Temp;Humidity;BMP_temperature;BMP_pressure;BME280_temperature;BME280_humidity;BME280_pressure;Samples;Min_cycle;Max_cycle;Signal;HPM_P1;HPM_P2
2024/01/08 00:02:40;;;;;;;40.08;14.33;;;;;;;-9.84;100.00;101883.53;4891934;58;1143326;-78
2024/01/08 00:07:46;;;;;;;34.70;14.23;;;;;;;-9.82;100.00;101883.16;4882326;57;1142610;-78
2024/01/08 00:12:52;;;;;;;38.43;13.23;;;;;;;-9.84;100.00;101880.97;4939715;57;1143018;-78
2024/01/08 00:17:57;;;;;;;73.20;19.40;;;;;;;-9.89;100.00;101877.41;4966226;57;1144962;-79
2024/01/08 00:23:03;;;;;;;59.80;17.45;;;;;;;-10.06;100.00;101882.06;4922888;57;1144948;-78
2024/01/08 00:28:08;;;;;;;61.50;18.17;;;;;;;-10.10;100.00;101880.68;4965016;57;1147563;-79
2024/01/08 00:33:14;;;;;;;51.70;15.57;;;;;;;-10.16;100.00;101878.80;4974519;57;1147289;-77
2024/01/08 00:38:20;;;;;;;46.23;15.47;;;;;;;-10.16;100.00;101886.48;4889597;57;1267529;-77
2024/01/08 00:43:25;;;;;;;45.83;16.73;;;;;;;-10.17;100.00;101897.53;4888123;58;1147184;-78
2024/01/08 00:48:31;;;;;;;40.20;15.30;;;;;;;-10.14;100.00;101897.63;4928863;58;1145154;-77
2024/01/08 00:53:36;;;;;;;41.70;13.27;;;;;;;-10.15;100.00;101899.73;4923742;58;1145318;-79
2024/01/08 00:58:44;;;;;;;41.27;15.03;;;;;;;-10.12;100.00;101910.46;4904133;58;1145053;-78
2024/01/08 01:03:50;;;;;;;42.23;14.80;;;;;;;-10.14;100.00;101918.50;4911779;58;1144927;-77
2024/01/08 01:08:56;;;;;;;41.87;13.17;;;;;;;-10.16;100.00;101918.86;4919880;57;1145538;-76
2024/01/08 01:14:01;;;;;;;46.07;15.33;;;;;;;-10.20;100.00;101930.72;4846431;58;1147169;-77
2024/01/08 01:19:07;;;;;;;58.00;19.00;;;;;;;-10.21;100.00;101943.05;4953782;57;1145130;-78
2024/01/08 01:24:12;;;;;;;44.50;16.20;;;;;;;-10.19;100.00;101946.94;4980167;57;1145237;-76
2024/01/08 01:29:19;;;;;;;43.78;14.94;;;;;;;-10.16;100.00;101948.28;4966715;57;1144973;-77
2024/01/08 01:34:25;;;;;;;42.55;14.60;;;;;;;-10.19;100.00;101949.50;4930434;56;1145100;-79
2024/01/08 01:39:32;;;;;;;47.43;14.03;;;;;;;-10.23;100.00;101957.48;4900838;58;1145046;-79
2024/01/08 01:44:38;;;;;;;43.15;15.95;;;;;;;-10.27;100.00;101954.81;4912019;56;1154549;-78
2024/01/08 01:49:44;;;;;;;52.95;18.60;;;;;;;-10.28;100.00;101948.83;4911642;57;1145338;-77
2024/01/08 01:54:52;;;;;;;33.05;13.58;;;;;;;-10.32;100.00;101956.81;4878002;58;1145417;-78
2024/01/08 01:59:58;;;;;;;39.17;14.90;;;;;;;-10.40;100.00;101966.37;4899953;56;1146980;-79
2024/01/08 02:05:04;;;;;;;39.23;14.17;;;;;;;-10.40;100.00;101966.37;4908737;58;1146870;-77
2024/01/08 02:10:10;;;;;;;39.17;12.67;;;;;;;-10.44;100.00;101973.06;4767513;59;1146913;-80
2024/01/08 02:15:16;;;;;;;42.60;13.13;;;;;;;-10.47;100.00;101977.21;4801991;59;1147276;-78
2024/01/08 02:20:22;;;;;;;44.07;13.87;;;;;;;-10.47;100.00;101975.94;4893187;57;1146966;-77
2024/01/08 02:25:31;;;;;;;35.85;15.10;;;;;;;-10.47;100.00;101975.94;4926937;58;1147111;-78
2024/01/08 02:30:35;;;;;;;52.53;14.93;;;;;;;-10.40;100.00;101982.58;4885663;58;1147982;-79
2024/01/08 02:35:41;;;;;;;38.67;14.67;;;;;;;-10.34;100.00;101981.88;4844837;59;1147102;-79
2024/01/08 02:40:47;;;;;;;37.47;14.47;;;;;;;-10.34;100.00;101985.30;4862223;57;1147318;-79
2024/01/08 02:45:52;;;;;;;40.58;13.55;;;;;;;-10.39;100.00;101984.73;4877080;57;1147196;-77
2024/01/08 02:50:58;;;;;;;38.47;14.57;;;;;;;-10.38;100.00;101990.27;4859908;58;1147249;-78
2024/01/08 02:56:04;;;;;;;33.03;12.83;;;;;;;-10.39;100.00;101988.56;4863464;57;1147155;-78
2024/01/08 03:01:09;;;;;;;41.33;13.43;;;;;;;-10.39;100.00;101998.38;4881831;57;1147108;-79
2024/01/08 03:06:15;;;;;;;33.57;12.57;;;;;;;-10.38;100.00;101997.94;4862671;59;1147435;-77
2024/01/08 03:11:21;;;;;;;28.20;10.90;;;;;;;-10.34;100.00;102014.71;4835754;57;1147272;-77
2024/01/08 03:16:26;;;;;;;38.85;14.25;;;;;;;-10.33;100.00;102016.86;4921302;57;1147123;-78
2024/01/08 03:21:32;;;;;;;34.93;12.27;;;;;;;-10.39;100.00;102026.51;4924228;57;1146973;-79
2024/01/08 03:26:38;;;;;;;29.67;11.78;;;;;;;-10.34;100.00;102026.22;4899277;58;1147148;-79
2024/01/08 03:31:46;;;;;;;29.45;10.72;;;;;;;-10.36;100.00;102020.59;4891695;57;1147021;-79
2024/01/08 03:36:52;;;;;;;31.30;10.33;;;;;;;-10.34;100.00;102034.30;4919559;57;1147313;-78
2024/01/08 03:41:58;;;;;;;33.77;10.57;;;;;;;-10.39;100.00;102030.34;4900802;57;1147137;-78
2024/01/08 03:47:03;;;;;;;25.57;11.40;;;;;;;-10.42;100.00;102040.47;4888000;58;1147509;-77
2024/01/08 03:52:09;;;;;;;30.83;11.40;;;;;;;-10.43;100.00;102041.70;4860793;56;1147091;-78
2024/01/08 03:57:15;;;;;;;30.27;11.23;;;;;;;-10.47;100.00;102044.55;4847126;57;1147263;-77
2024/01/08 04:02:21;;;;;;;28.33;11.00;;;;;;;-10.47;100.00;102050.08;4919601;56;1146968;-79
2024/01/08 04:07:27;;;;;;;34.70;12.53;;;;;;;-10.49;100.00;102055.55;4964190;56;1147391;-78
2024/01/08 04:12:32;;;;;;;32.67;10.97;;;;;;;-10.46;100.00;102068.44;4957111;56;1146877;-79
2024/01/08 04:17:38;;;;;;;27.62;11.00;;;;;;;-10.43;100.00;102073.25;4973910;56;1147300;-78
2024/01/08 04:22:45;;;;;;;24.10;10.48;;;;;;;-10.39;100.00;102072.95;4933020;57;1147051;-79
2024/01/08 04:27:51;;;;;;;37.67;11.97;;;;;;;-10.38;100.00;102084.47;4891963;58;1147086;-78
2024/01/08 04:32:57;;;;;;;33.87;12.07;;;;;;;-10.39;100.00;102093.00;4844848;57;1146782;-78
2024/01/08 04:38:02;;;;;;;31.50;10.83;;;;;;;-10.40;100.00;102098.92;4799644;57;1146960;-79
2024/01/08 04:43:08;;;;;;;31.17;11.37;;;;;;;-10.47;100.00;102084.59;4926700;56;1147348;-77
2024/01/08 04:48:13;;;;;;;35.43;13.20;;;;;;;-10.47;100.00;102087.16;5001247;56;1147398;-77
2024/01/08 04:53:19;;;;;;;31.37;12.20;;;;;;;-10.49;100.00;102091.34;5000272;56;1147047;-77
2024/01/08 04:58:25;;;;;;;28.67;10.37;;;;;;;-10.51;100.00;102096.41;4930342;57;1147166;-77
2024/01/08 05:03:30;;;;;;;26.80;10.47;;;;;;;-10.52;100.00;102101.46;4722237;59;1147057;-76
2024/01/08 05:08:36;;;;;;;39.40;11.25;;;;;;;-10.45;100.00;102109.81;4859932;58;1145066;-77
2024/01/08 05:13:41;;;;;;;30.53;10.40;;;;;;;-10.49;100.00;102108.83;4946532;56;1146988;-77
2024/01/08 05:18:47;;;;;;;19.60;8.27;;;;;;;-10.63;100.00;102111.34;4981058;56;1147188;-77
2024/01/08 05:23:52;;;;;;;25.13;9.63;;;;;;;-10.71;100.00;102123.00;4868558;58;1145018;-78
2024/01/08 05:28:58;;;;;;;34.50;12.00;;;;;;;-10.80;100.00;102131.61;4904710;56;1145021;-77
2024/01/08 05:34:04;;;;;;;36.90;13.43;;;;;;;-10.79;100.00;102141.02;4840624;59;1147033;-78
2024/01/08 05:39:09;;;;;;;31.27;9.33;;;;;;;-10.78;100.00;102147.88;4766019;59;1147147;-78
2024/01/08 05:44:15;;;;;;;32.53;12.23;;;;;;;-10.81;100.00;102147.76;4906791;57;1144939;-78
2024/01/08 05:49:20;;;;;;;36.00;11.03;;;;;;;-10.82;100.00;102148.57;4927200;57;1147038;-78
2024/01/08 05:54:26;;;;;;;27.83;8.67;;;;;;;-10.84;100.00;102150.20;4919030;57;1147080;-77
2024/01/08 05:59:32;;;;;;;35.97;11.57;;;;;;;-10.93;100.00;102144.77;4921485;56;1145022;-77
2024/01/08 06:04:38;;;;;;;27.90;11.23;;;;;;;-11.02;100.00;102147.89;4958646;56;1147367;-78
2024/01/08 06:09:44;;;;;;;31.30;11.03;;;;;;;-11.04;100.00;102151.66;4919593;57;1147302;-77
2024/01/08 06:14:49;;;;;;;32.05;10.48;;;;;;;-11.09;100.00;102169.77;4901283;57;1147138;-78
2024/01/08 06:19:55;;;;;;;24.53;9.77;;;;;;;-11.16;100.00;102174.21;4948774;58;1147302;-77
2024/01/08 06:25:00;;;;;;;30.47;11.70;;;;;;;-11.19;100.00;102178.33;4899528;57;1145011;-77
2024/01/08 06:30:08;;;;;;;24.53;8.90;;;;;;;-11.20;100.00;102180.41;4932713;57;1146892;-78
2024/01/08 06:35:14;;;;;;;24.77;9.18;;;;;;;-11.20;100.00;102195.33;4979985;57;1144769;-77
2024/01/08 06:40:20;;;;;;;29.30;10.33;;;;;;;-11.25;100.00;102194.28;4954923;56;1144774;-77
2024/01/08 06:45:25;;;;;;;35.40;10.73;;;;;;;-11.22;100.00;102202.06;4888787;57;1146998;-78
2024/01/08 06:50:31;;;;;;;40.03;12.40;;;;;;;-11.22;100.00;102211.41;4963164;57;1156822;-76
2024/01/08 06:55:37;;;;;;;29.37;11.33;;;;;;;-11.24;100.00;102219.00;4934580;57;1148465;-76
2024/01/08 07:00:42;;;;;;;27.95;11.25;;;;;;;-11.23;100.00;102216.92;4952363;58;1147288;-77
2024/01/08 07:05:49;;;;;;;26.27;10.03;;;;;;;-11.22;100.00;102236.94;4926747;56;1146958;-77
2024/01/08 07:10:55;;;;;;;25.13;10.23;;;;;;;-11.26;100.00;102244.02;4998638;57;1146995;-78
2024/01/08 07:16:03;;;;;;;33.57;11.50;;;;;;;-11.24;100.00;102255.16;5010927;56;1147184;-79
2024/01/08 07:21:13;;;;;;;36.63;12.13;;;;;;;-11.21;100.00;102256.16;4981694;57;1147220;-79
2024/01/08 07:26:18;;;;;;;29.17;9.83;;;;;;;-11.23;100.00;102256.50;4961289;57;1147054;-77
2024/01/08 07:31:24;;;;;;;32.50;11.53;;;;;;;-11.25;100.00;102261.95;4974779;57;1144753;-79
2024/01/08 07:36:29;;;;;;;40.43;14.93;;;;;;;-11.30;100.00;102262.60;5141904;55;1147216;-79
2024/01/08 07:41:35;;;;;;;44.70;15.47;;;;;;;-11.26;100.00;102269.55;5111010;55;1146981;-77
2024/01/08 07:46:42;;;;;;;30.50;10.50;;;;;;;-11.23;100.00;102279.89;5003341;56;1147031;-79
2024/01/08 07:51:47;;;;;;;43.70;14.33;;;;;;;-11.25;100.00;102281.51;5012766;56;1147334;-78
2024/01/08 07:56:53;;;;;;;33.80;12.67;;;;;;;-11.10;100.00;102289.77;5037994;56;1147933;-78
2024/01/08 08:01:59;;;;;;;29.50;11.27;;;;;;;-11.00;100.00;102287.17;5008185;53;1146910;-77
2024/01/08 08:07:05;;;;;;;30.95;8.95;;;;;;;-10.82;100.00;102279.77;4927953;56;1147266;-78
2024/01/08 08:12:10;;;;;;;26.07;10.07;;;;;;;-10.59;100.00;102297.25;5006099;57;1145236;-74
2024/01/08 08:17:16;;;;;;;28.12;12.30;;;;;;;-10.43;100.00;102321.69;4918825;57;1147276;-77
2024/01/08 08:22:23;;;;;;;38.87;11.40;;;;;;;-10.23;100.00;102325.81;4927666;57;1147198;-75
2024/01/08 08:27:29;;;;;;;33.87;12.03;;;;;;;-10.00;100.00;102324.05;4992884;56;1147192;-77
2024/01/08 08:32:34;;;;;;;43.30;12.53;;;;;;;-9.75;100.00;102334.30;4987093;55;1144975;-77
2024/01/08 08:37:40;;;;;;;26.33;10.43;;;;;;;-9.62;100.00;102341.56;4978916;55;1144970;-78
2024/01/08 08:42:46;;;;;;;25.57;10.00;;;;;;;-9.54;100.00;102346.95;4971350;58;1144869;-77
2024/01/08 08:47:51;;;;;;;24.43;10.47;;;;;;;-9.56;100.00;102362.68;5061005;57;1144899;-76
2024/01/08 08:52:57;;;;;;;15.10;6.37;;;;;;;-9.63;100.00;102368.43;5067117;57;1144988;-77
2024/01/08 08:58:05;;;;;;;23.53;9.67;;;;;;;-9.62;100.00;102375.27;5013168;56;1142795;-75
2024/01/08 09:03:10;;;;;;;24.83;10.07;;;;;;;-9.44;100.00;102386.13;4994072;57;1142897;-77
2024/01/08 09:08:17;;;;;;;32.63;13.17;;;;;;;-9.36;100.00;102395.38;5053791;57;1144743;-77
2024/01/08 09:13:22;;;;;;;31.53;10.80;;;;;;;-9.52;100.00;102396.55;4977330;56;1154802;-75
2024/01/08 09:18:28;;;;;;;32.30;10.73;;;;;;;-9.49;100.00;102390.66;5104355;56;1145129;-78
2024/01/08 09:23:34;;;;;;;90.70;27.03;;;;;;;-9.59;100.00;102400.98;5046407;58;1145076;-77
2024/01/08 09:28:39;;;;;;;32.17;11.43;;;;;;;-9.60;100.00;102401.39;5032848;57;1144891;-77
2024/01/08 09:33:47;;;;;;;32.87;13.20;;;;;;;-9.62;100.00;102399.18;4972244;57;1144925;-75
2024/01/08 09:38:52;;;;;;;33.63;12.40;;;;;;;-9.57;100.00;102406.16;4963542;57;1145380;-75
2024/01/08 09:44:05;;;;;;;31.53;11.33;;;;;;;-9.42;100.00;102415.23;4961062;57;1144760;-77
2024/01/08 09:49:13;;;;;;;40.63;13.27;;;;;;;-9.36;100.00;102420.58;4918268;57;1144869;-76
2024/01/08 09:54:21;;;;;;;38.77;12.77;;;;;;;-9.37;100.00;102418.84;4958681;57;1144724;-78
2024/01/08 09:59:29;;;;;;;29.17;11.17;;;;;;;-9.39;100.00;102430.72;4990817;57;1145352;-79
2024/01/08 10:04:35;;;;;;;36.10;11.78;;;;;;;-9.40;100.00;102430.66;4929340;56;1145364;-78
2024/01/08 10:09:40;;;;;;;35.83;13.45;;;;;;;-9.40;100.00;102435.78;4962916;56;1182036;-78
2024/01/08 10:14:46;;;;;;;21.33;9.17;;;;;;;-9.46;100.00;102435.16;4991433;57;1145170;-75
2024/01/08 10:19:52;;;;;;;33.67;12.10;;;;;;;-9.41;100.00;102428.51;4909870;57;1174721;-77
2024/01/08 10:25:03;;;;;;;28.63;11.47;;;;;;;-9.41;100.00;102421.23;5002231;58;1144862;-75
2024/01/08 10:30:11;;;;;;;24.83;8.57;;;;;;;-9.41;100.00;102414.83;5017986;57;1144931;-76
2024/01/08 10:35:18;;;;;;;26.82;9.80;;;;;;;-9.26;100.00;102423.90;4820470;60;1142897;-76
2024/01/08 10:40:23;;;;;;;22.47;7.70;;;;;;;-9.12;100.00;102428.61;4981917;56;1143161;-76
2024/01/08 10:45:29;;;;;;;28.70;11.17;;;;;;;-8.99;100.00;102434.59;5010028;57;1142943;-76
2024/01/08 10:50:37;;;;;;;34.77;11.97;;;;;;;-8.98;100.00;102431.20;4996904;57;1144621;-77
2024/01/08 10:55:44;;;;;;;40.67;13.20;;;;;;;-8.93;100.00;102424.55;4979875;56;1143350;-76
2024/01/08 11:00:49;;;;;;;28.52;10.10;;;;;;;-8.78;100.00;102427.60;4928052;59;1143163;-75
2024/01/08 11:05:56;;;;;;;34.67;12.30;;;;;;;-8.75;100.00;102425.55;4903555;59;1144696;-76
2024/01/08 11:11:12;;;;;;;34.43;12.13;;;;;;;-8.70;100.00;102435.11;4936118;57;1143678;-77
2024/01/08 11:16:21;;;;;;;29.10;11.40;;;;;;;-8.59;100.00;102432.91;4853515;59;1143458;-75
2024/01/08 11:21:27;;;;;;;33.28;10.93;;;;;;;-8.56;100.00;102437.72;4885491;59;1145111;-78
2024/01/08 11:26:33;;;;;;;32.23;11.80;;;;;;;-8.54;100.00;102436.45;4817905;58;1145218;-76
2024/01/08 11:31:48;;;;;;;40.77;14.40;;;;;;;-8.42;100.00;102444.97;4776949;59;1145077;-76
2024/01/08 11:37:18;;;;;;;34.97;12.83;;;;;;;-8.37;100.00;102449.80;4865779;58;1143164;-76
2024/01/08 11:42:24;;;;;;;30.92;13.00;;;;;;;-8.24;100.00;102451.47;4874332;59;1142673;-79
2024/01/08 11:47:34;;;;;;;38.90;13.07;;;;;;;-8.03;100.00;102451.23;4933163;57;1143138;-77
2024/01/08 11:52:42;;;;;;;27.45;10.65;;;;;;;-7.90;100.00;102446.03;4897305;57;1142662;-74
2024/01/08 11:57:47;;;;;;;25.75;8.80;;;;;;;-7.67;100.00;102449.27;4946997;57;1142858;-77
2024/01/08 12:03:05;;;;;;;42.80;13.03;;;;;;;-7.36;100.00;102444.13;4894671;57;1140973;-74
2024/01/08 12:08:17;;;;;;;34.47;14.87;;;;;;;-6.85;100.00;102443.27;4973683;57;1143330;-75
2024/01/08 12:13:22;;;;;;;28.80;11.53;;;;;;;-6.14;100.00;102446.63;4971479;57;1143286;-75
2024/01/08 12:18:28;;;;;;;32.07;12.30;;;;;;;-5.63;100.00;102436.01;4805536;57;1143146;-78
2024/01/08 12:23:34;;;;;;;44.97;13.83;;;;;;;-5.28;100.00;102440.55;4915659;56;1142904;-76
2024/01/08 12:28:42;;;;;;;33.37;11.73;;;;;;;-4.97;100.00;102441.11;4950347;57;1142751;-77
2024/01/08 12:33:47;;;;;;;32.58;13.90;;;;;;;-4.56;100.00;102447.34;4969117;57;1142914;-76
2024/01/08 12:38:53;;;;;;;33.90;14.27;;;;;;;-4.36;100.00;102452.80;4960775;56;1143965;-75
2024/01/08 12:43:58;;;;;;;30.40;11.50;;;;;;;-4.09;100.00;102452.31;4951222;56;1142587;-76
2024/01/08 12:49:04;;;;;;;29.15;12.65;;;;;;;-3.82;100.00;102451.41;4971791;57;1143139;-76
2024/01/08 12:54:09;;;;;;;33.10;14.17;;;;;;;-3.48;100.00;102455.22;4864407;57;1142758;-76
2024/01/08 12:59:17;;;;;;;27.50;11.80;;;;;;;-3.19;100.00;102463.28;4905234;58;1142830;-77
2024/01/08 13:04:24;;;;;;;33.33;12.80;;;;;;;-2.76;100.00;102468.88;4980784;56;1142708;-75
2024/01/08 13:09:29;;;;;;;34.83;12.63;;;;;;;-2.53;100.00;102471.20;4996370;56;1143288;-76
2024/01/08 13:14:35;;;;;;;32.17;14.43;;;;;;;-2.37;100.00;102486.44;4944377;57;1142605;-78
2024/01/08 13:19:41;;;;;;;40.60;15.63;;;;;;;-2.20;100.00;102486.12;5016992;57;1143495;-75
2024/01/08 13:24:46;;;;;;;32.25;14.18;;;;;;;-2.05;100.00;102495.72;4835949;59;1143566;-75
2024/01/08 13:29:52;;;;;;;34.17;16.40;;;;;;;-2.15;99.99;102502.16;4887186;58;1142885;-78
2024/01/08 13:34:58;;;;;;;37.67;14.77;;;;;;;-2.23;99.28;102516.77;4801415;58;1140741;-75
2024/01/08 13:40:03;;;;;;;27.30;12.83;;;;;;;-2.76;96.00;102518.08;4713263;59;1141247;-78
2024/01/08 13:45:10;;;;;;;42.33;15.63;;;;;;;-3.56;96.60;102528.86;4843981;59;1141196;-81
2024/01/08 13:50:21;;;;;;;33.54;14.32;;;;;;;-4.14;98.24;102529.78;4753912;58;1140958;-77
2024/01/08 13:55:26;;;;;;;30.95;14.15;;;;;;;-4.78;99.67;102533.03;4760589;56;1140450;-76
2024/01/08 14:00:33;;;;;;;38.48;14.26;;;;;;;-5.37;100.00;102551.72;4921976;56;1140865;-78
2024/01/08 14:05:38;;;;;;;35.47;19.77;;;;;;;-5.77;100.00;102555.56;4819921;56;1143132;-76
2024/01/08 14:10:44;;;;;;;39.03;13.70;;;;;;;-6.18;100.00;102562.40;4817008;59;1143182;-74
2024/01/08 14:15:50;;;;;;;30.32;11.08;;;;;;;-6.18;100.00;102562.40;4921073;58;1143182;-75
2024/01/08 14:20:55;;;;;;;37.20;14.33;;;;;;;-6.38;100.00;102565.77;5012904;56;1142818;-77
2024/01/08 14:26:03;;;;;;;31.97;13.60;;;;;;;-6.58;100.00;102566.59;4906629;56;1142980;-77
2024/01/08 14:31:10;;;;;;;36.65;12.45;;;;;;;-6.70;100.00;102578.25;4960884;57;1143158;-76
2024/01/08 14:36:15;;;;;;;36.50;13.50;;;;;;;-6.82;100.00;102569.39;4936899;57;1142973;-77
2024/01/08 14:41:21;;;;;;;44.00;14.43;;;;;;;-6.89;100.00;102570.08;4912649;58;1142952;-75
2024/01/08 14:46:27;;;;;;;49.38;17.87;;;;;;;-6.95;100.00;102580.19;4974744;56;1142930;-76
2024/01/08 14:51:32;;;;;;;33.07;12.47;;;;;;;-7.06;100.00;102581.61;4996071;55;1143116;-75
2024/01/08 14:56:39;;;;;;;38.23;12.80;;;;;;;-7.16;100.00;102589.46;4932643;57;1143280;-77
2024/01/08 15:01:44;;;;;;;34.23;13.00;;;;;;;-7.22;100.00;102586.73;4907302;58;1143147;-77
2024/01/08 15:06:50;;;;;;;37.08;13.10;;;;;;;-7.25;100.00;102585.36;4857912;57;1143050;-76
2024/01/08 15:11:56;;;;;;;32.30;12.50;;;;;;;-7.25;100.00;102596.93;4974127;57;1142690;-77
2024/01/08 15:17:02;;;;;;;31.37;11.70;;;;;;;-7.28;100.00;102586.97;4953145;56;1142893;-75
2024/01/08 15:22:09;;;;;;;36.10;15.13;;;;;;;-7.34;100.00;102589.38;4962890;56;1143218;-78
2024/01/08 15:27:14;;;;;;;41.35;16.45;;;;;;;-7.42;100.00;102592.13;4994412;57;1143031;-76
2024/01/08 15:32:22;;;;;;;44.77;14.57;;;;;;;-7.40;100.00;102591.77;4950276;57;1142796;-77
2024/01/08 15:37:28;;;;;;;36.37;13.67;;;;;;;-7.42;100.00;102581.84;4926026;57;1143658;-77
2024/01/08 15:42:35;;;;;;;37.55;12.93;;;;;;;-7.43;100.00;102587.81;4986949;56;1142910;-74
2024/01/08 15:47:40;;;;;;;54.97;22.40;;;;;;;-7.59;100.00;102594.20;4905942;57;1142817;-76
2024/01/08 15:53:01;;;;;;;86.12;26.02;;;;;;;-7.71;100.00;102598.56;4945650;56;1143070;-74
2024/01/08 15:58:24;;;;;;;74.98;24.48;;;;;;;-7.71;100.00;102602.42;4973397;56;1143153;-74
2024/01/08 16:03:30;;;;;;;44.60;17.23;;;;;;;-7.77;100.00;102605.20;4976009;56;1143197;-74
2024/01/08 16:08:37;;;;;;;89.30;25.17;;;;;;;-7.79;100.00;102617.16;4953607;56;1143202;-75
2024/01/08 16:13:42;;;;;;;84.17;29.47;;;;;;;-7.78;100.00;102621.44;4950764;56;1143328;-77
2024/01/08 16:18:48;;;;;;;47.67;18.70;;;;;;;-7.82;100.00;102629.08;4917249;59;1143064;-76
2024/01/08 16:23:53;;;;;;;42.23;15.67;;;;;;;-7.81;100.00;102630.81;4948626;55;1142867;-75
2024/01/08 16:28:59;;;;;;;28.15;12.15;;;;;;;-7.82;100.00;102638.47;4942888;57;1142786;-77
2024/01/08 16:34:05;;;;;;;33.77;13.73;;;;;;;-7.82;100.00;102637.19;4999536;56;1142681;-77
2024/01/08 16:39:10;;;;;;;39.20;13.13;;;;;;;-7.87;100.00;102642.17;4932867;56;1143640;-75
2024/01/08 16:44:16;;;;;;;35.70;13.43;;;;;;;-7.94;100.00;102648.33;4963710;56;1142858;-77
2024/01/08 16:49:22;;;;;;;44.95;14.40;;;;;;;-7.97;100.00;102652.11;5007836;56;1143361;-77
2024/01/08 16:54:27;;;;;;;35.60;12.98;;;;;;;-8.01;100.00;102654.98;4924504;57;1143174;-75
2024/01/08 16:59:33;;;;;;;48.53;17.37;;;;;;;-8.07;100.00;102662.47;4957293;57;1142700;-80
2024/01/08 17:04:38;;;;;;;42.78;15.38;;;;;;;-8.11;100.00;102678.63;4887751;56;1143184;-76
2024/01/08 17:09:46;;;;;;;46.42;14.90;;;;;;;-8.14;100.00;102687.91;4872906;58;1143280;-79
2024/01/08 17:14:51;;;;;;;41.63;14.77;;;;;;;-8.22;100.00;102692.77;4851455;58;1143125;-76
2024/01/08 17:19:57;;;;;;;40.65;15.55;;;;;;;-8.31;100.00;102683.48;4940005;56;1143347;-76
2024/01/08 17:25:03;;;;;;;205.80;69.07;;;;;;;-8.35;100.00;102687.67;4865615;56;1143036;-76
2024/01/08 17:30:11;;;;;;;38.67;14.47;;;;;;;-8.50;100.00;102688.42;4951723;57;1145022;-75
2024/01/08 17:35:16;;;;;;;34.17;14.17;;;;;;;-8.60;100.00;102701.77;4973565;57;1143203;-78
2024/01/08 17:40:23;;;;;;;39.83;15.57;;;;;;;-8.68;100.00;102699.31;4943665;57;1143310;-76
2024/01/08 17:45:29;;;;;;;33.90;11.68;;;;;;;-8.72;100.00;102705.17;4980587;58;1143552;-76
2024/01/08 17:50:34;;;;;;;46.72;10.82;;;;;;;-8.81;100.00;102706.11;4948518;57;1143123;-74
2024/01/08 17:55:40;;;;;;;27.17;11.83;;;;;;;-8.85;100.00;102711.52;4965262;57;1143181;-75
2024/01/08 18:00:46;;;;;;;39.37;13.33;;;;;;;-8.91;100.00;102712.60;4977576;57;1142948;-76
2024/01/08 18:05:51;;;;;;;50.17;13.67;;;;;;;-8.98;100.00;102715.33;4907106;57;1143230;-77
2024/01/08 18:10:57;;;;;;;41.27;14.20;;;;;;;-9.00;100.00;102722.09;4947732;56;1143343;-78
2024/01/08 18:16:03;;;;;;;37.57;13.90;;;;;;;-8.99;100.00;102731.94;4920247;57;1143165;-78
2024/01/08 18:21:09;;;;;;;34.93;13.73;;;;;;;-9.04;100.00;102736.91;4891067;57;1142787;-78
2024/01/08 18:26:14;;;;;;;37.27;13.43;;;;;;;-9.17;100.00;102743.67;5010977;56;1144828;-74
2024/01/08 18:31:20;;;;;;;48.40;14.07;;;;;;;-9.21;100.00;102753.33;4990468;55;1143108;-79
2024/01/08 18:36:27;;;;;;;36.23;13.77;;;;;;;-9.21;100.00;102761.02;4956968;56;1143208;-78
2024/01/08 18:41:32;;;;;;;36.70;13.50;;;;;;;-9.22;100.00;102762.23;4938986;57;1142891;-76
2024/01/08 18:46:38;;;;;;;39.83;12.30;;;;;;;-9.26;100.00;102775.33;4929326;58;1143292;-76
2024/01/08 18:51:43;;;;;;;40.80;14.17;;;;;;;-9.29;100.00;102790.17;4865208;58;1142958;-78
2024/01/08 18:56:49;;;;;;;35.03;11.50;;;;;;;-9.42;100.00;102793.06;4926619;57;1145108;-76
2024/01/08 19:01:54;;;;;;;42.27;14.57;;;;;;;-9.44;100.00;102796.37;5017980;56;1144908;-75
2024/01/08 19:07:00;;;;;;;43.53;14.20;;;;;;;-9.55;100.00;102798.51;5084324;57;1144853;-77
2024/01/08 19:12:08;;;;;;;53.20;16.00;;;;;;;-9.62;100.00;102804.17;5056298;57;1145048;-76
2024/01/08 19:17:13;;;;;;;54.98;15.88;;;;;;;-9.65;100.00;102803.67;4911444;57;1145205;-75
2024/01/08 19:22:20;;;;;;;55.17;17.93;;;;;;;-9.67;100.00;102808.25;4940340;58;1144929;-75
2024/01/08 19:27:26;;;;;;;52.73;16.00;;;;;;;-9.71;100.00;102820.05;4974994;58;1144711;-77
2024/01/08 19:32:32;;;;;;;44.63;16.90;;;;;;;-9.63;100.00;102815.27;4982298;56;1142759;-75
2024/01/08 19:37:38;;;;;;;56.27;18.80;;;;;;;-9.62;100.00;102815.30;4890515;57;1143135;-76
2024/01/08 19:42:43;;;;;;;50.37;17.37;;;;;;;-9.61;100.00;102816.17;4975461;57;1142933;-76
2024/01/08 19:47:49;;;;;;;59.10;17.92;;;;;;;-9.61;100.00;102814.89;5007853;56;1143070;-77
2024/01/08 19:52:57;;;;;;;52.57;15.90;;;;;;;-9.60;100.00;102814.08;4946455;57;1142886;-77
2024/01/08 19:58:03;;;;;;;47.93;16.07;;;;;;;-9.60;100.00;102816.23;4894023;57;1143248;-74
2024/01/08 20:03:09;;;;;;;50.93;19.07;;;;;;;-9.61;100.00;102827.70;4899148;57;1142999;-73
2024/01/08 20:08:14;;;;;;;52.63;17.03;;;;;;;-9.66;100.00;102834.34;4890767;57;1142988;-76
2024/01/08 20:13:20;;;;;;;46.73;17.87;;;;;;;-9.71;100.00;102844.78;4927079;56;1143093;-79
2024/01/08 20:18:33;;;;;;;47.37;15.93;;;;;;;-9.75;100.00;102838.64;4906733;58;1142899;-78
2024/01/08 20:23:45;;;;;;;48.97;16.93;;;;;;;-9.80;100.00;102846.56;4933344;56;1142781;-77
2024/01/08 20:28:50;;;;;;;47.23;15.43;;;;;;;-9.88;100.00;102846.62;4978810;58;1142852;-76
2024/01/08 20:33:57;;;;;;;57.30;19.70;;;;;;;-9.93;100.00;102848.13;4940665;57;1142860;-78
2024/01/08 20:39:02;;;;;;;56.70;19.20;;;;;;;-10.00;100.00;102853.37;4900863;57;1143040;-78
2024/01/08 20:44:08;;;;;;;53.83;17.17;;;;;;;-10.00;100.00;102857.22;4995875;56;1144906;-78
2024/01/08 20:49:14;;;;;;;53.17;18.37;;;;;;;-10.06;100.00;102858.62;4959979;56;1147137;-78
2024/01/08 20:54:20;;;;;;;52.63;18.83;;;;;;;-10.04;100.00;102858.28;4941983;56;1145259;-77
2024/01/08 20:59:25;;;;;;;65.53;20.63;;;;;;;-9.93;100.00;102867.33;4936732;57;1145166;-77
2024/01/08 21:04:31;;;;;;;56.10;19.10;;;;;;;-9.88;100.00;102866.22;4801131;57;1143099;-78
2024/01/08 21:09:37;;;;;;;60.73;16.67;;;;;;;-9.93;100.00;102874.13;4997134;57;1142853;-78
2024/01/08 21:14:43;;;;;;;58.45;17.90;;;;;;;-10.00;100.00;102876.41;4958284;58;1142852;-78
2024/01/08 21:19:49;;;;;;;56.75;19.60;;;;;;;-10.09;100.00;102867.06;4921475;58;1145030;-78
2024/01/08 21:24:55;;;;;;;57.53;20.13;;;;;;;-10.13;100.00;102865.57;4925309;57;1144776;-78
2024/01/08 21:30:00;;;;;;;60.90;20.52;;;;;;;-10.14;100.00;102871.49;4825347;58;1145026;-78
2024/01/08 21:35:07;;;;;;;81.37;25.07;;;;;;;-10.11;100.00;102870.36;4982473;59;1144788;-78
2024/01/08 21:40:12;;;;;;;104.77;31.67;;;;;;;-10.07;100.00;102886.29;4915960;58;1144726;-77
2024/01/08 21:45:18;;;;;;;76.27;24.87;;;;;;;-9.93;100.00;102886.92;4967883;58;1147406;-78
2024/01/08 21:50:24;;;;;;;82.17;22.63;;;;;;;-9.90;100.00;102885.75;4977789;58;1142742;-78
2024/01/08 21:55:31;;;;;;;67.20;21.47;;;;;;;-10.02;100.00;102879.70;4976242;57;1143441;-78
2024/01/08 22:00:37;;;;;;;76.05;22.85;;;;;;;-10.07;100.00;102876.93;5022626;57;1144803;-77
2024/01/08 22:05:43;;;;;;;66.93;21.47;;;;;;;-10.10;100.00;102881.94;5037974;56;1145036;-77
2024/01/08 22:10:48;;;;;;;81.13;24.73;;;;;;;-10.21;100.00;102871.64;5028366;58;1144838;-77
2024/01/08 22:15:54;;;;;;;123.63;34.30;;;;;;;-10.03;100.00;102878.83;4988472;57;1144813;-78
2024/01/08 22:20:59;;;;;;;123.00;35.47;;;;;;;-9.89;100.00;102887.50;4985665;57;1146802;-78